This is the latest recevied weather packets stored in our database for station/object Kirchdorf. If no packets are shown the sender has not sent any weather packets the latest 10 day(s).
| Time | Temp. | Humidity | Pressure | Rain* | Wind** | Luminosity | Snow |
|---|---|---|---|---|---|---|---|
| 1777474931 | 17.78° C | 39% | 1020.2 hPa | 0 mm | - | - | - |
| 1777473135 | 18.33° C | 40% | 1020.2 hPa | 0 mm | - | - | - |
| 1777471331 | 17.78° C | 40% | 1020.4 hPa | 0 mm | - | - | - |
| 1777469531 | 17.78° C | 40% | 1020.2 hPa | 0 mm | - | - | - |
| 1777467730 | 17.22° C | 39% | 1020.5 hPa | 0 mm | - | - | - |
| 1777465932 | 17.22° C | 42% | 1020.4 hPa | 0 mm | - | - | - |
| 1777464131 | 16.67° C | 43% | 1020.6 hPa | 0 mm | - | - | - |
| 1777462330 | 16.11° C | 46% | 1020.5 hPa | 0 mm | - | - | - |
| 1777460530 | 15.56° C | 49% | 1020.2 hPa | 0 mm | - | - | - |
| 1777458730 | 15.56° C | 51% | 1020.4 hPa | 0 mm | - | - | - |
| 1777456931 | 14.44° C | 54% | 1020.3 hPa | 0 mm | - | - | - |
| 1777455131 | 13.89° C | 54% | 1020.4 hPa | 0 mm | - | - | - |
| 1777453332 | 13.33° C | 56% | 1020.4 hPa | 0 mm | - | - | - |
| 1777451531 | 12.78° C | 59% | 1020.5 hPa | 0 mm | - | - | - |
| 1777449731 | 11.67° C | 62% | 1020.5 hPa | 0 mm | - | - | - |
| 1777447931 | 10.56° C | 63% | 1020.3 hPa | 0 mm | - | - | - |
| 1777446130 | 10° C | 64% | 1020.1 hPa | 0 mm | - | - | - |
| 1777444331 | 9.44° C | 66% | 1019.9 hPa | 0 mm | - | - | - |
| 1777442531 | 9.44° C | 67% | 1019.7 hPa | 0 mm | - | - | - |
| 1777440731 | 8.89° C | 67% | 1019.5 hPa | 0 mm | - | - | - |
| 1777438931 | 8.89° C | 66% | 1019.1 hPa | 0 mm | - | - | - |
| 1777437132 | 9.44° C | 65% | 1018.9 hPa | 0 mm | - | - | - |
| 1777435331 | 9.44° C | 63% | 1018.8 hPa | 0 mm | - | - | - |
| 1777433531 | 10° C | 62% | 1018.4 hPa | 0 mm | - | - | - |
| 1777431732 | 10.56° C | 61% | 1018.1 hPa | 0 mm | - | - | - |
* Rain since midnight (hover to see other rain measurements)
** Current wind speed in m/s (hover to see current wind gust speed)